createdAt,value
2019-05-12T00:01:48.253Z,85.60
2019-05-12T00:04:18.709Z,85.30
2019-05-12T00:06:47.876Z,85.00
2019-05-12T00:09:15.844Z,85.10
2019-05-12T00:11:43.840Z,85.60
2019-05-12T00:14:13.258Z,85.70
2019-05-12T00:16:41.156Z,85.60
2019-05-12T00:19:09.376Z,85.90
2019-05-12T00:21:40.911Z,86.10
2019-05-12T00:24:10.443Z,86.10
2019-05-12T00:26:39.522Z,86.60
2019-05-12T00:29:07.791Z,87.10
2019-05-12T00:31:38.227Z,87.30
2019-05-12T00:34:07.642Z,87.80
2019-05-12T00:36:34.960Z,88.00
2019-05-12T00:39:04.637Z,88.30
2019-05-12T00:41:32.694Z,88.40
2019-05-12T00:44:00.765Z,88.30
2019-05-12T00:46:31.621Z,88.20
2019-05-12T00:49:00.240Z,88.30
2019-05-12T00:51:29.298Z,88.00
2019-05-12T00:53:58.046Z,88.10
2019-05-12T00:56:27.887Z,88.30
2019-05-12T00:58:57.920Z,88.20
2019-05-12T01:01:28.618Z,88.30
2019-05-12T01:04:00.121Z,88.40
2019-05-12T01:06:28.424Z,88.00
2019-05-12T01:09:01.028Z,88.10
2019-05-12T01:11:29.900Z,88.30
2019-05-12T01:14:02.030Z,88.60
2019-05-12T01:16:33.867Z,88.90
2019-05-12T01:19:02.501Z,88.80
2019-05-12T01:21:32.409Z,89.20
2019-05-12T01:24:03.555Z,88.90
2019-05-12T01:26:32.856Z,88.80
2019-05-12T01:29:00.405Z,88.00
2019-05-12T01:31:29.919Z,87.70
2019-05-12T01:33:58.570Z,87.00
2019-05-12T01:36:28.629Z,86.40
2019-05-12T01:38:59.151Z,86.00
2019-05-12T01:41:28.684Z,85.40
2019-05-12T01:43:59.957Z,84.70
2019-05-12T01:46:28.934Z,84.40
2019-05-12T01:48:58.987Z,84.10
2019-05-12T01:51:28.444Z,84.00
2019-05-12T01:54:08.607Z,84.00
2019-05-12T01:56:25.471Z,84.50
2019-05-12T01:58:55.039Z,85.00
2019-05-12T02:01:22.888Z,85.90
2019-05-12T02:03:50.841Z,86.80
2019-05-12T02:06:18.804Z,88.00
2019-05-12T02:08:48.410Z,87.80
2019-05-12T02:11:34.443Z,89.10
2019-05-12T02:14:05.059Z,90.30
2019-05-12T02:16:34.261Z,90.60
2019-05-12T02:19:04.107Z,91.10
2019-05-12T02:21:32.418Z,91.70
2019-05-12T02:24:03.546Z,91.90
2019-05-12T02:26:34.499Z,92.30
2019-05-12T02:29:07.698Z,93.00
2019-05-12T02:31:40.954Z,92.80
2019-05-12T02:34:06.003Z,93.00
2019-05-12T02:36:36.969Z,93.20
2019-05-12T02:39:06.787Z,93.20
2019-05-12T02:41:34.792Z,93.10
2019-05-12T02:44:05.304Z,93.20
2019-05-12T02:46:35.461Z,93.50
2019-05-12T02:49:05.341Z,93.50
2019-05-12T02:51:35.157Z,93.40
2019-05-12T02:54:05.474Z,93.50
2019-05-12T02:56:35.848Z,93.50
2019-05-12T02:59:05.168Z,93.50
2019-05-12T03:01:34.895Z,93.50
2019-05-12T03:04:05.631Z,93.40
2019-05-12T03:06:35.852Z,93.50
2019-05-12T03:09:04.859Z,93.70
2019-05-12T03:11:31.878Z,93.60
2019-05-12T03:13:59.664Z,93.50
2019-05-12T03:16:27.863Z,93.50
2019-05-12T03:18:57.262Z,93.60
2019-05-12T03:21:27.947Z,93.60
2019-05-12T03:23:57.817Z,93.60
2019-05-12T03:26:25.618Z,93.30
2019-05-12T03:28:55.539Z,93.40
2019-05-12T03:31:29.838Z,93.40
2019-05-12T03:34:00.072Z,93.30
2019-05-12T03:36:32.255Z,93.20
2019-05-12T03:38:55.249Z,93.20
2019-05-12T03:41:34.735Z,93.40
2019-05-12T03:44:04.860Z,93.50
2019-05-12T03:46:31.196Z,93.50
2019-05-12T03:48:59.000Z,93.30
2019-05-12T03:51:26.890Z,93.40
2019-05-12T03:53:55.562Z,93.50
2019-05-12T03:56:26.066Z,93.60
2019-05-12T03:58:57.484Z,93.60
2019-05-12T04:01:25.798Z,93.50
2019-05-12T04:03:54.315Z,93.70
2019-05-12T04:06:24.524Z,93.90
2019-05-12T04:08:54.621Z,93.80
2019-05-12T04:11:24.967Z,94.00
2019-05-12T04:13:54.843Z,93.70
2019-05-12T04:16:24.755Z,93.90
2019-05-12T04:18:55.174Z,94.10
2019-05-12T04:21:24.383Z,94.20
2019-05-12T04:23:54.831Z,94.40
2019-05-12T04:26:25.330Z,94.50
2019-05-12T04:28:54.822Z,94.80
2019-05-12T04:31:24.865Z,95.00
2019-05-12T04:33:55.389Z,94.90
2019-05-12T04:36:24.866Z,95.20
2019-05-12T04:38:55.589Z,95.50
2019-05-12T04:41:25.486Z,95.20
2019-05-12T04:43:55.247Z,95.50
2019-05-12T04:46:26.464Z,95.60
2019-05-12T04:49:06.533Z,95.30
2019-05-12T04:51:37.287Z,95.50
2019-05-12T04:54:06.632Z,95.40
2019-05-12T04:56:44.578Z,95.00
2019-05-12T04:59:15.737Z,95.00
2019-05-12T05:01:45.525Z,95.30
2019-05-12T05:04:16.150Z,95.30
2019-05-12T05:06:44.833Z,95.30
2019-05-12T05:09:14.386Z,95.30
2019-05-12T05:11:45.179Z,95.40
2019-05-12T05:14:14.340Z,95.50
2019-05-12T05:16:45.143Z,95.50
2019-05-12T05:19:13.988Z,95.70
2019-05-12T05:21:43.732Z,95.80
2019-05-12T05:24:11.496Z,96.00
2019-05-12T05:26:39.544Z,96.00
2019-05-12T05:29:07.423Z,96.00
2019-05-12T05:31:35.260Z,96.20
2019-05-12T05:34:04.681Z,96.10
2019-05-12T05:36:34.569Z,96.10
2019-05-12T05:39:07.178Z,96.20
2019-05-12T05:41:40.224Z,96.20
2019-05-12T05:44:09.645Z,96.10
2019-05-12T05:46:44.565Z,95.90
2019-05-12T05:49:09.861Z,96.10
2019-05-12T05:51:39.726Z,95.90
2019-05-12T05:54:07.318Z,96.20
2019-05-12T05:56:42.482Z,96.40
2019-05-12T05:59:04.836Z,96.40
2019-05-12T06:01:34.791Z,96.40
2019-05-12T06:04:04.355Z,96.40
2019-05-12T06:06:34.179Z,96.40
2019-05-12T06:09:03.708Z,96.40
2019-05-12T06:11:31.397Z,96.60
2019-05-12T06:14:10.647Z,96.80
2019-05-12T06:16:29.872Z,96.80
2019-05-12T06:19:00.416Z,96.90
2019-05-12T06:21:36.384Z,97.00
2019-05-12T06:24:03.525Z,97.30
2019-05-12T06:26:36.423Z,97.50
2019-05-12T06:29:04.590Z,97.50
2019-05-12T06:31:34.660Z,97.50
2019-05-12T06:34:07.924Z,97.50
2019-05-12T06:36:33.986Z,97.50
2019-05-12T06:39:03.963Z,97.70
2019-05-12T06:41:33.610Z,98.00
2019-05-12T06:44:03.752Z,97.90
2019-05-12T06:46:34.327Z,98.10
2019-05-12T06:49:11.860Z,98.00
2019-05-12T06:51:33.921Z,98.00
2019-05-12T06:54:07.320Z,98.00
2019-05-12T06:56:34.236Z,97.90
2019-05-12T06:59:09.979Z,98.10
2019-05-12T07:01:34.311Z,97.80
2019-05-12T07:04:06.800Z,97.90
2019-05-12T07:06:34.635Z,97.70
2019-05-12T07:09:09.553Z,97.80
2019-05-12T07:11:53.491Z,97.80
2019-05-12T07:14:22.591Z,97.90
2019-05-12T07:16:55.172Z,97.70
2019-05-12T07:19:22.452Z,97.50
2019-05-12T07:21:50.795Z,97.60
2019-05-12T07:24:18.435Z,97.50
2019-05-12T07:26:48.136Z,97.30
2019-05-12T07:29:17.501Z,97.10
2019-05-12T07:31:45.453Z,97.30
2019-05-12T07:34:14.812Z,97.30
2019-05-12T07:36:44.281Z,97.30
2019-05-12T07:39:13.987Z,97.20
2019-05-12T07:41:50.934Z,97.10
2019-05-12T07:44:14.754Z,97.10
2019-05-12T07:46:47.758Z,97.10
2019-05-12T07:49:14.017Z,97.40
2019-05-12T07:51:50.163Z,96.60
2019-05-12T07:54:20.862Z,96.30
2019-05-12T07:56:48.663Z,96.20
2019-05-12T07:59:16.493Z,96.40
2019-05-12T08:01:50.511Z,96.70
2019-05-12T08:04:14.011Z,96.80
2019-05-12T08:06:46.701Z,96.50
2019-05-12T08:09:13.561Z,96.90
2019-05-12T08:11:43.385Z,97.00
2019-05-12T08:14:15.453Z,96.60
2019-05-12T08:16:43.692Z,96.60
2019-05-12T08:19:14.930Z,95.90
2019-05-12T08:21:43.899Z,96.00
2019-05-12T08:24:11.413Z,95.70
2019-05-12T08:26:39.524Z,95.70
2019-05-12T08:29:10.279Z,95.70
2019-05-12T08:31:40.698Z,95.80
2019-05-12T08:34:10.716Z,95.70
2019-05-12T08:36:44.312Z,96.00
2019-05-12T08:39:12.020Z,95.90
2019-05-12T08:41:40.385Z,95.90
2019-05-12T08:44:08.229Z,95.90
2019-05-12T08:46:36.455Z,95.20
2019-05-12T08:49:05.391Z,95.40
2019-05-12T08:51:33.997Z,95.20
2019-05-12T08:54:07.978Z,94.60
2019-05-12T08:56:33.526Z,94.70
2019-05-12T08:59:04.440Z,94.50
2019-05-12T09:01:34.470Z,94.10
2019-05-12T09:04:11.121Z,93.70
2019-05-12T09:06:35.463Z,93.80
2019-05-12T09:09:08.398Z,94.40
2019-05-12T09:11:36.382Z,94.30
2019-05-12T09:14:05.797Z,94.10
2019-05-12T09:16:33.964Z,93.60
2019-05-12T09:19:04.904Z,93.70
2019-05-12T09:21:36.533Z,93.90
2019-05-12T09:24:07.658Z,94.00
2019-05-12T09:26:35.563Z,94.50
2019-05-12T09:29:07.306Z,94.00
2019-05-12T09:31:35.786Z,94.10
2019-05-12T09:34:11.488Z,94.50
2019-05-12T09:36:33.834Z,94.70
2019-05-12T09:39:03.792Z,94.20
2019-05-12T09:41:36.007Z,94.10
2019-05-12T09:44:04.569Z,94.20
2019-05-12T09:46:34.382Z,94.10
2019-05-12T09:49:04.100Z,94.40
2019-05-12T09:51:41.487Z,94.50
2019-05-12T09:54:07.353Z,94.50
2019-05-12T09:56:35.446Z,94.20
2019-05-12T09:59:17.423Z,94.30
2019-05-12T10:01:37.388Z,94.70
2019-05-12T10:04:03.929Z,94.50
2019-05-12T10:06:33.980Z,94.70
2019-05-12T10:09:03.458Z,94.60
2019-05-12T10:11:33.646Z,94.30
2019-05-12T10:14:10.458Z,94.10
2019-05-12T10:16:39.544Z,94.40
2019-05-12T10:19:11.022Z,94.40
2019-05-12T10:21:40.411Z,94.50
2019-05-12T10:24:11.631Z,94.00
2019-05-12T10:26:41.068Z,94.10
2019-05-12T10:29:19.668Z,94.00
2019-05-12T10:31:41.046Z,93.90
2019-05-12T10:34:23.953Z,94.10
2019-05-12T10:36:53.808Z,94.20
2019-05-12T10:39:26.086Z,94.60
2019-05-12T10:41:54.945Z,94.00
2019-05-12T10:44:29.873Z,93.80
2019-05-12T10:46:58.893Z,94.30
2019-05-12T10:49:27.180Z,93.70
2019-05-12T10:51:55.474Z,94.00
2019-05-12T10:54:24.151Z,92.90
2019-05-12T10:56:54.627Z,92.90
2019-05-12T10:59:32.691Z,92.00
2019-05-12T11:01:54.145Z,91.90
2019-05-12T11:04:35.257Z,91.50
2019-05-12T11:06:54.100Z,90.90
2019-05-12T11:09:29.311Z,91.40
2019-05-12T11:11:54.014Z,90.90
2019-05-12T11:14:26.317Z,90.40
2019-05-12T11:16:54.657Z,90.00
2019-05-12T11:19:33.594Z,90.10
2019-05-12T11:22:04.540Z,90.10
2019-05-12T11:24:35.388Z,90.00
2019-05-12T11:27:06.791Z,90.20
2019-05-12T11:29:45.992Z,89.50
2019-05-12T11:32:07.110Z,89.00
2019-05-12T11:34:35.573Z,90.00
2019-05-12T11:37:06.967Z,89.70
2019-05-12T11:39:37.036Z,89.40
2019-05-12T11:42:06.055Z,85.60
2019-05-12T11:44:35.709Z,86.60
2019-05-12T11:47:03.901Z,84.10
2019-05-12T11:49:33.466Z,83.50
2019-05-12T11:52:07.367Z,81.50
2019-05-12T11:54:33.543Z,81.80
2019-05-12T11:57:03.099Z,80.70
2019-05-12T11:59:31.198Z,81.50
2019-05-12T12:01:59.193Z,81.50
2019-05-12T12:04:28.879Z,80.00
2019-05-12T12:06:57.016Z,79.90
2019-05-12T12:09:25.682Z,81.00
2019-05-12T12:12:02.359Z,78.90
2019-05-12T12:14:24.649Z,74.60
2019-05-12T12:16:54.440Z,77.40
2019-05-12T12:19:28.278Z,77.40
2019-05-12T12:21:56.685Z,77.70
2019-05-12T12:24:29.959Z,78.20
2019-05-12T12:26:54.553Z,77.80
2019-05-12T12:29:25.075Z,77.20
2019-05-12T12:31:57.409Z,76.70
2019-05-12T12:34:30.050Z,74.20
2019-05-12T12:36:56.677Z,72.20
2019-05-12T12:39:24.605Z,73.70
2019-05-12T12:42:00.075Z,74.40
2019-05-12T12:44:26.287Z,75.40
2019-05-12T12:47:00.432Z,71.70
2019-05-12T12:49:29.096Z,71.50
2019-05-12T12:51:56.732Z,72.70
2019-05-12T12:54:24.840Z,71.90
2019-05-12T12:57:00.247Z,73.20
2019-05-12T12:59:26.475Z,75.50
2019-05-12T13:01:59.163Z,77.00
2019-05-12T13:04:24.871Z,78.30
2019-05-12T13:06:54.327Z,78.70
2019-05-12T13:09:24.621Z,74.40
2019-05-12T13:11:53.682Z,76.50
2019-05-12T13:14:23.442Z,77.10
2019-05-12T13:16:54.702Z,77.80
2019-05-12T13:19:26.519Z,76.70
2019-05-12T13:21:58.537Z,79.00
2019-05-12T13:24:26.633Z,78.80
2019-05-12T13:26:54.647Z,80.40
2019-05-12T13:29:26.332Z,78.80
2019-05-12T13:31:53.849Z,79.20
2019-05-12T13:34:23.700Z,78.30
2019-05-12T13:36:54.416Z,77.60
2019-05-12T13:39:24.226Z,79.10
2019-05-12T13:41:56.231Z,80.10
2019-05-12T13:44:24.061Z,79.10
2019-05-12T13:46:58.646Z,77.40
2019-05-12T13:49:25.252Z,77.80
2019-05-12T13:51:53.796Z,77.70
2019-05-12T13:54:26.143Z,77.10
2019-05-12T13:56:53.417Z,75.80
2019-05-12T13:59:24.871Z,75.30
2019-05-12T14:01:50.927Z,74.90
2019-05-12T14:04:22.292Z,73.30
2019-05-12T14:06:49.917Z,73.30
2019-05-12T14:09:18.429Z,71.70
2019-05-12T14:11:46.537Z,72.30
2019-05-12T14:14:15.474Z,70.60
2019-05-12T14:16:52.302Z,71.10
2019-05-12T14:19:14.439Z,71.40
2019-05-12T14:21:42.723Z,70.80
2019-05-12T14:24:13.735Z,71.20
2019-05-12T14:26:47.545Z,70.80
2019-05-12T14:29:10.731Z,71.70
2019-05-12T14:31:45.480Z,71.30
2019-05-12T14:34:10.447Z,71.30
2019-05-12T14:36:38.249Z,70.40
2019-05-12T14:39:10.191Z,71.70
2019-05-12T14:41:37.100Z,72.30
2019-05-12T14:44:05.024Z,72.40
2019-05-12T14:46:40.161Z,72.00
2019-05-12T14:49:06.513Z,71.10
2019-05-12T14:51:34.536Z,71.50
2019-05-12T14:54:04.762Z,71.30
2019-05-12T14:56:33.809Z,69.00
2019-05-12T14:59:03.527Z,67.60
2019-05-12T15:01:44.198Z,67.80
2019-05-12T15:04:02.337Z,67.90
2019-05-12T15:06:30.274Z,66.90
2019-05-12T15:08:58.455Z,66.10
2019-05-12T15:11:27.754Z,67.00
2019-05-12T15:13:56.964Z,65.80
2019-05-12T15:16:25.050Z,66.40
2019-05-12T15:18:54.165Z,66.40
2019-05-12T15:21:27.424Z,67.00
2019-05-12T15:23:53.305Z,66.60
2019-05-12T15:26:23.955Z,66.40
2019-05-12T15:28:54.064Z,65.10
2019-05-12T15:31:23.546Z,64.40
2019-05-12T15:33:51.774Z,64.30
2019-05-12T15:36:20.063Z,63.80
2019-05-12T15:38:48.995Z,65.20
2019-05-12T15:41:20.049Z,66.10
2019-05-12T15:43:49.190Z,66.90
2019-05-12T15:46:17.651Z,66.30
2019-05-12T15:48:45.760Z,66.90
2019-05-12T15:51:13.977Z,67.30
2019-05-12T15:53:44.563Z,68.20
2019-05-12T15:56:19.248Z,68.60
2019-05-12T15:58:44.020Z,69.10
2019-05-12T16:01:16.934Z,69.30
2019-05-12T16:03:44.463Z,69.50
2019-05-12T16:06:17.328Z,69.50
2019-05-12T16:08:45.489Z,69.90
2019-05-12T16:11:14.077Z,70.60
2019-05-12T16:13:44.907Z,70.70
2019-05-12T16:16:14.204Z,70.80
2019-05-12T16:18:46.719Z,70.70
2019-05-12T16:21:11.702Z,70.80
2019-05-12T16:23:39.813Z,70.60
2019-05-12T16:26:12.365Z,71.00
2019-05-12T16:28:37.411Z,70.50
2019-05-12T16:31:08.719Z,69.80
2019-05-12T16:33:35.154Z,71.10
2019-05-12T16:36:09.438Z,70.00
2019-05-12T16:38:32.777Z,69.90
2019-05-12T16:41:03.516Z,69.90
2019-05-12T16:43:34.980Z,69.70
2019-05-12T16:46:04.402Z,70.40
2019-05-12T16:48:36.199Z,71.10
2019-05-12T16:51:03.378Z,71.70
2019-05-12T16:53:31.292Z,72.50
2019-05-12T16:55:59.478Z,72.50
2019-05-12T16:58:33.306Z,72.90
2019-05-12T17:00:57.267Z,73.30
2019-05-12T17:03:25.830Z,73.50
2019-05-12T17:05:55.726Z,73.70
2019-05-12T17:08:24.138Z,74.50
2019-05-12T17:11:00.916Z,75.00
2019-05-12T17:13:23.621Z,75.50
2019-05-12T17:15:59.883Z,75.70
2019-05-12T17:18:24.835Z,76.10
2019-05-12T17:20:54.542Z,76.70
2019-05-12T17:23:24.648Z,77.30
2019-05-12T17:25:52.545Z,78.40
2019-05-12T17:28:20.777Z,78.90
2019-05-12T17:30:50.052Z,79.50
2019-05-12T17:33:22.600Z,80.00
2019-05-12T17:35:47.996Z,80.60
2019-05-12T17:38:19.793Z,80.90
2019-05-12T17:40:50.259Z,81.60
2019-05-12T17:43:15.315Z,81.80
2019-05-12T17:45:44.282Z,82.60
2019-05-12T17:48:14.289Z,83.20
2019-05-12T17:50:46.551Z,83.50
2019-05-12T17:53:17.800Z,83.90
2019-05-12T17:55:50.778Z,84.70
2019-05-12T17:58:15.284Z,84.90
2019-05-12T18:00:47.575Z,85.00
2019-05-12T18:03:21.287Z,85.30
2019-05-12T18:05:48.041Z,85.50
2019-05-12T18:08:14.395Z,85.70
2019-05-12T18:10:43.653Z,86.30
2019-05-12T18:13:17.577Z,87.40
2019-05-12T18:15:44.016Z,87.80
2019-05-12T18:18:17.113Z,88.20
2019-05-12T18:20:44.354Z,88.80
2019-05-12T18:23:13.423Z,89.20
2019-05-12T18:25:44.164Z,89.50
2019-05-12T18:28:21.772Z,89.90
2019-05-12T18:30:46.120Z,90.00
2019-05-12T18:33:28.441Z,90.10
2019-05-12T18:35:45.018Z,90.10
2019-05-12T18:38:18.234Z,90.30
2019-05-12T18:40:42.747Z,90.30
2019-05-12T18:43:10.792Z,90.20
2019-05-12T18:45:40.490Z,90.10
2019-05-12T18:48:19.147Z,89.10
2019-05-12T18:50:38.403Z,89.60
2019-05-12T18:53:06.388Z,89.80
2019-05-12T18:55:39.856Z,90.20
2019-05-12T18:58:04.518Z,90.00
2019-05-12T19:00:34.263Z,90.20
2019-05-12T19:03:06.155Z,90.30
2019-05-12T19:05:32.038Z,90.10
2019-05-12T19:08:00.050Z,90.10
2019-05-12T19:10:28.048Z,90.10
2019-05-12T19:13:01.540Z,90.00
2019-05-12T19:15:29.169Z,89.80
2019-05-12T19:17:59.868Z,89.70
2019-05-12T19:20:31.375Z,89.80
2019-05-12T19:22:59.996Z,89.70
2019-05-12T19:25:30.233Z,89.70
2019-05-12T19:28:06.077Z,90.00
2019-05-12T19:30:27.573Z,90.00
2019-05-12T19:33:00.212Z,90.00
2019-05-12T19:35:25.497Z,90.00
2019-05-12T19:37:55.253Z,90.00
2019-05-12T19:40:23.761Z,90.20
2019-05-12T19:42:53.830Z,90.50
2019-05-12T19:45:24.922Z,90.60
2019-05-12T19:47:53.677Z,90.60
2019-05-12T19:50:23.827Z,90.80
2019-05-12T19:52:53.532Z,90.90
2019-05-12T19:55:24.028Z,90.90
2019-05-12T19:57:51.439Z,90.90
2019-05-12T20:00:21.277Z,91.00
2019-05-12T20:02:49.107Z,91.00
2019-05-12T20:05:23.526Z,91.00
2019-05-12T20:07:49.340Z,91.10
2019-05-12T20:10:17.268Z,91.00
2019-05-12T20:12:48.769Z,91.20
2019-05-12T20:15:30.159Z,91.40
2019-05-12T20:18:15.563Z,91.60
2019-05-12T20:20:45.239Z,91.70
2019-05-12T20:23:14.399Z,91.90
2019-05-12T20:25:44.279Z,92.10
2019-05-12T20:28:14.439Z,92.20
2019-05-12T20:30:43.860Z,92.20
2019-05-12T20:33:13.736Z,92.30
2019-05-12T20:35:45.212Z,92.40
2019-05-12T20:38:14.517Z,92.50
2019-05-12T20:40:43.262Z,92.60
2019-05-12T20:43:14.452Z,92.60
2019-05-12T20:45:42.145Z,92.70
2019-05-12T20:48:10.543Z,92.70
2019-05-12T20:50:39.021Z,92.70
2019-05-12T20:53:08.837Z,92.70
2019-05-12T20:55:41.339Z,92.60
2019-05-12T20:58:07.141Z,92.60
2019-05-12T21:00:38.751Z,92.40
2019-05-12T21:03:06.975Z,92.20
2019-05-12T21:05:34.858Z,92.10
2019-05-12T21:08:11.430Z,91.80
2019-05-12T21:10:34.650Z,91.20
2019-05-12T21:13:02.791Z,90.60
2019-05-12T21:15:40.713Z,90.00
2019-05-12T21:18:06.937Z,88.00
2019-05-12T21:20:33.705Z,86.30
2019-05-12T21:23:04.185Z,85.30
2019-05-12T21:25:33.883Z,84.60
2019-05-12T21:28:03.048Z,84.50
2019-05-12T21:30:33.777Z,84.50
2019-05-12T21:33:02.361Z,84.50
2019-05-12T21:35:40.665Z,84.50
2019-05-12T21:38:09.129Z,84.10
2019-05-12T21:40:37.444Z,84.00
2019-05-12T21:43:05.411Z,83.80
2019-05-12T21:45:33.883Z,83.10
2019-05-12T21:48:03.669Z,82.60
2019-05-12T21:50:38.127Z,82.50
2019-05-12T21:53:04.325Z,81.50
2019-05-12T21:55:33.989Z,81.30
2019-05-12T21:58:10.536Z,81.10
2019-05-12T22:00:34.910Z,80.80
2019-05-12T22:03:08.097Z,80.80
2019-05-12T22:05:50.386Z,80.60
2019-05-12T22:08:12.664Z,80.80
2019-05-12T22:10:35.948Z,80.80
2019-05-12T22:13:06.854Z,81.00
2019-05-12T22:15:36.627Z,81.30
2019-05-12T22:18:09.995Z,81.60
2019-05-12T22:20:39.756Z,81.70
2019-05-12T22:23:14.956Z,81.60
2019-05-12T22:25:43.600Z,81.60
2019-05-12T22:28:13.944Z,81.70
2019-05-12T22:30:43.888Z,81.40
2019-05-12T22:33:13.783Z,80.80
2019-05-12T22:35:44.307Z,80.70
2019-05-12T22:38:19.339Z,80.60
2019-05-12T22:40:49.172Z,80.50
2019-05-12T22:43:14.996Z,80.50
2019-05-12T22:45:44.719Z,80.00
2019-05-12T22:48:14.706Z,80.10
2019-05-12T22:50:43.466Z,79.70
2019-05-12T22:53:19.434Z,79.30
2019-05-12T22:55:46.739Z,78.90
2019-05-12T22:58:18.329Z,78.90
2019-05-12T23:00:45.739Z,78.90
2019-05-12T23:03:15.093Z,78.60
2019-05-12T23:05:43.203Z,78.30
2019-05-12T23:08:14.102Z,78.40
2019-05-12T23:10:51.406Z,78.40
2019-05-12T23:13:13.649Z,78.30
2019-05-12T23:15:47.577Z,78.20
2019-05-12T23:18:13.485Z,78.30
2019-05-12T23:20:43.683Z,78.40
2019-05-12T23:23:15.318Z,78.70
2019-05-12T23:25:41.097Z,78.60
2019-05-12T23:28:10.712Z,78.70
2019-05-12T23:30:43.650Z,78.70
2019-05-12T23:33:10.588Z,78.50
2019-05-12T23:35:39.762Z,78.50
2019-05-12T23:38:14.031Z,78.80
2019-05-12T23:40:37.903Z,78.70
2019-05-12T23:43:05.779Z,78.90
2019-05-12T23:45:35.004Z,79.10
2019-05-12T23:48:06.785Z,79.20
2019-05-12T23:50:36.531Z,79.20
2019-05-12T23:53:04.247Z,79.50
2019-05-12T23:55:34.738Z,79.80
2019-05-12T23:58:04.276Z,79.90
